sensor_id;sensor_type;location;lat;lon;timestamp;pressure;altitude;pressure_sealevel;temperature;humidity
4410;BME280;2218;51.408;7.208;2023-05-07T00:01:43;99794.41;;;21.40;49.63
4410;BME280;2218;51.408;7.208;2023-05-07T00:04:10;99801.50;;;21.39;49.63
4410;BME280;2218;51.408;7.208;2023-05-07T00:06:37;99801.50;;;21.39;50.04
4410;BME280;2218;51.408;7.208;2023-05-07T00:09:04;99798.03;;;21.39;49.85
4410;BME280;2218;51.408;7.208;2023-05-07T00:11:33;99800.66;;;21.39;49.96
4410;BME280;2218;51.408;7.208;2023-05-07T00:14:00;99799.81;;;21.38;49.74
4410;BME280;2218;51.408;7.208;2023-05-07T00:16:27;99800.75;;;21.37;49.88
4410;BME280;2218;51.408;7.208;2023-05-07T00:18:54;99801.59;;;21.38;49.77
4410;BME280;2218;51.408;7.208;2023-05-07T00:21:21;99800.75;;;21.37;50.13
4410;BME280;2218;51.408;7.208;2023-05-07T00:23:48;99806.03;;;21.37;49.63
4410;BME280;2218;51.408;7.208;2023-05-07T00:26:16;99806.03;;;21.37;50.09
4410;BME280;2218;51.408;7.208;2023-05-07T00:28:46;99800.75;;;21.37;49.85
4410;BME280;2218;51.408;7.208;2023-05-07T00:31:12;99803.41;;;21.37;49.75
4410;BME280;2218;51.408;7.208;2023-05-07T00:33:39;99798.25;;;21.36;49.89
4410;BME280;2218;51.408;7.208;2023-05-07T00:36:07;99795.47;;;21.37;49.85
4410;BME280;2218;51.408;7.208;2023-05-07T00:38:34;99797.28;;;21.37;50.05
4410;BME280;2218;51.408;7.208;2023-05-07T00:41:01;99795.47;;;21.37;50.13
4410;BME280;2218;51.408;7.208;2023-05-07T00:43:28;99798.13;;;21.37;50.01
4410;BME280;2218;51.408;7.208;2023-05-07T00:45:57;99792.97;;;21.36;50.03
4410;BME280;2218;51.408;7.208;2023-05-07T00:48:25;99792.97;;;21.36;50.14
4410;BME280;2218;51.408;7.208;2023-05-07T00:50:53;99791.16;;;21.36;49.82
4410;BME280;2218;51.408;7.208;2023-05-07T00:53:21;99789.47;;;21.35;49.71
4410;BME280;2218;51.408;7.208;2023-05-07T00:55:48;99786.84;;;21.35;50.04
4410;BME280;2218;51.408;7.208;2023-05-07T00:58:16;99785.16;;;21.34;50.07
4410;BME280;2218;51.408;7.208;2023-05-07T01:00:43;99773.59;;;21.35;49.49
4410;BME280;2218;51.408;7.208;2023-05-07T01:03:12;99786.84;;;21.35;49.81
4410;BME280;2218;51.408;7.208;2023-05-07T01:05:39;99791.28;;;21.35;50.15
4410;BME280;2218;51.408;7.208;2023-05-07T01:08:07;99779.88;;;21.34;50.13
4410;BME280;2218;51.408;7.208;2023-05-07T01:10:34;99785.16;;;21.34;50.04
4410;BME280;2218;51.408;7.208;2023-05-07T01:13:02;99777.22;;;21.34;50.27
4410;BME280;2218;51.408;7.208;2023-05-07T01:15:29;99779.88;;;21.34;50.04
4410;BME280;2218;51.408;7.208;2023-05-07T01:17:56;99775.41;;;21.35;50.14
4410;BME280;2218;51.408;7.208;2023-05-07T01:20:32;99778.06;;;21.35;49.91
4410;BME280;2218;51.408;7.208;2023-05-07T01:23:01;99781.66;;;21.34;50.17
4410;BME280;2218;51.408;7.208;2023-05-07T01:25:30;99779.97;;;21.33;50.09
4410;BME280;2218;51.408;7.208;2023-05-07T01:27:59;99785.16;;;21.34;49.88
4410;BME280;2218;51.408;7.208;2023-05-07T01:30:30;99781.75;;;21.32;49.98
4410;BME280;2218;51.408;7.208;2023-05-07T01:33:04;99784.41;;;21.32;49.93
4410;BME280;2218;51.408;7.208;2023-05-07T01:35:38;99781.75;;;21.32;50.05
4410;BME280;2218;51.408;7.208;2023-05-07T01:38:08;99773.84;;;21.32;50.08
4410;BME280;2218;51.408;7.208;2023-05-07T01:40:36;99772.16;;;21.31;49.85
4410;BME280;2218;51.408;7.208;2023-05-07T01:43:03;99774.81;;;21.31;49.99
4410;BME280;2218;51.408;7.208;2023-05-07T01:45:32;99774.81;;;21.31;50.02
4410;BME280;2218;51.408;7.208;2023-05-07T01:48:03;99776.59;;;21.31;50.01
4410;BME280;2218;51.408;7.208;2023-05-07T01:50:32;99778.41;;;21.30;49.83
4410;BME280;2218;51.408;7.208;2023-05-07T01:52:59;99785.38;;;21.31;50.32
4410;BME280;2218;51.408;7.208;2023-05-07T01:55:27;99782.72;;;21.31;50.29
4410;BME280;2218;51.408;7.208;2023-05-07T01:57:54;99782.81;;;21.30;50.07
4410;BME280;2218;51.408;7.208;2023-05-07T02:00:22;99778.41;;;21.30;50.24
4410;BME280;2218;51.408;7.208;2023-05-07T02:02:50;99779.34;;;21.29;50.24
4410;BME280;2218;51.408;7.208;2023-05-07T02:05:27;99776.69;;;21.29;49.93
4410;BME280;2218;51.408;7.208;2023-05-07T02:07:59;99777.53;;;21.30;50.31
4410;BME280;2218;51.408;7.208;2023-05-07T02:10:29;99777.63;;;21.28;49.62
4410;BME280;2218;51.408;7.208;2023-05-07T02:12:56;99778.50;;;21.29;50.04
4410;BME280;2218;51.408;7.208;2023-05-07T02:15:23;99774.06;;;21.29;50.18
4410;BME280;2218;51.408;7.208;2023-05-07T02:18:03;99770.56;;;21.29;50.10
4410;BME280;2218;51.408;7.208;2023-05-07T02:20:30;99775.88;;;21.29;50.37
4410;BME280;2218;51.408;7.208;2023-05-07T02:22:58;99770.56;;;21.29;50.30
4410;BME280;2218;51.408;7.208;2023-05-07T02:25:26;99767.06;;;21.28;50.00
4410;BME280;2218;51.408;7.208;2023-05-07T02:27:54;99763.59;;;21.28;50.20
4410;BME280;2218;51.408;7.208;2023-05-07T02:30:28;99764.41;;;21.28;49.88
4410;BME280;2218;51.408;7.208;2023-05-07T02:32:58;99768.03;;;21.27;50.34
4410;BME280;2218;51.408;7.208;2023-05-07T02:35:25;99770.66;;;21.27;50.03
4410;BME280;2218;51.408;7.208;2023-05-07T02:37:52;99772.47;;;21.27;50.45
4410;BME280;2218;51.408;7.208;2023-05-07T02:40:19;99773.31;;;21.27;50.36
4410;BME280;2218;51.408;7.208;2023-05-07T02:42:46;99767.19;;;21.27;50.00
4410;BME280;2218;51.408;7.208;2023-05-07T02:45:15;99762.88;;;21.26;50.28
4410;BME280;2218;51.408;7.208;2023-05-07T02:47:43;99763.72;;;21.26;50.27
4410;BME280;2218;51.408;7.208;2023-05-07T02:50:11;99761.06;;;21.26;50.25
4410;BME280;2218;51.408;7.208;2023-05-07T02:52:38;99762.03;;;21.25;50.32
4410;BME280;2218;51.408;7.208;2023-05-07T02:55:06;99760.22;;;21.26;50.26
4410;BME280;2218;51.408;7.208;2023-05-07T02:57:34;99760.22;;;21.26;49.82
4410;BME280;2218;51.408;7.208;2023-05-07T03:00:11;99762.03;;;21.25;50.33
4410;BME280;2218;51.408;7.208;2023-05-07T03:02:42;99758.56;;;21.25;50.09
4410;BME280;2218;51.408;7.208;2023-05-07T03:05:10;99758.56;;;21.25;50.13
4410;BME280;2218;51.408;7.208;2023-05-07T03:07:38;99753.25;;;21.25;50.16
4410;BME280;2218;51.408;7.208;2023-05-07T03:10:05;99759.38;;;21.25;49.98
4410;BME280;2218;51.408;7.208;2023-05-07T03:12:33;99762.16;;;21.24;50.33
4410;BME280;2218;51.408;7.208;2023-05-07T03:15:00;99764.66;;;21.25;50.27
4410;BME280;2218;51.408;7.208;2023-05-07T03:17:27;99764.81;;;21.24;49.97
4410;BME280;2218;51.408;7.208;2023-05-07T03:19:55;99769.13;;;21.25;50.16
4410;BME280;2218;51.408;7.208;2023-05-07T03:22:22;99768.38;;;21.23;50.43
4410;BME280;2218;51.408;7.208;2023-05-07T03:24:49;99766.56;;;21.23;50.02
4410;BME280;2218;51.408;7.208;2023-05-07T03:27:16;99763.00;;;21.24;50.23
4410;BME280;2218;51.408;7.208;2023-05-07T03:29:43;99766.56;;;21.23;50.02
4410;BME280;2218;51.408;7.208;2023-05-07T03:32:10;99763.00;;;21.24;50.22
4410;BME280;2218;51.408;7.208;2023-05-07T03:34:37;99766.56;;;21.23;50.25
4410;BME280;2218;51.408;7.208;2023-05-07T03:37:06;99772.81;;;21.22;50.09
4410;BME280;2218;51.408;7.208;2023-05-07T03:39:33;99776.31;;;21.23;50.24
4410;BME280;2218;51.408;7.208;2023-05-07T03:42:00;99766.69;;;21.22;50.43
4410;BME280;2218;51.408;7.208;2023-05-07T03:44:29;99764.91;;;21.22;50.29
4410;BME280;2218;51.408;7.208;2023-05-07T03:46:56;99769.34;;;21.22;50.10
4410;BME280;2218;51.408;7.208;2023-05-07T03:49:23;99770.19;;;21.22;50.46
4410;BME280;2218;51.408;7.208;2023-05-07T03:51:50;99763.22;;;21.21;50.48
4410;BME280;2218;51.408;7.208;2023-05-07T03:54:18;99767.66;;;21.21;50.27
4410;BME280;2218;51.408;7.208;2023-05-07T03:56:47;99768.50;;;21.21;50.14
4410;BME280;2218;51.408;7.208;2023-05-07T03:59:14;99770.31;;;21.21;50.50
4410;BME280;2218;51.408;7.208;2023-05-07T04:01:43;99772.13;;;21.20;50.35
4410;BME280;2218;51.408;7.208;2023-05-07T04:04:15;99772.13;;;21.20;50.35
4410;BME280;2218;51.408;7.208;2023-05-07T04:06:42;99774.75;;;21.20;50.13
4410;BME280;2218;51.408;7.208;2023-05-07T04:09:09;99778.25;;;21.21;50.40
4410;BME280;2218;51.408;7.208;2023-05-07T04:11:39;99781.84;;;21.20;50.27
4410;BME280;2218;51.408;7.208;2023-05-07T04:14:08;99786.28;;;21.19;50.46
4410;BME280;2218;51.408;7.208;2023-05-07T04:16:35;99781.84;;;21.20;50.35
4410;BME280;2218;51.408;7.208;2023-05-07T04:19:03;99781.94;;;21.18;50.12
4410;BME280;2218;51.408;7.208;2023-05-07T04:21:31;99781.00;;;21.19;50.25
4410;BME280;2218;51.408;7.208;2023-05-07T04:23:58;99780.16;;;21.19;50.18
4410;BME280;2218;51.408;7.208;2023-05-07T04:26:25;99780.03;;;21.20;50.30
4410;BME280;2218;51.408;7.208;2023-05-07T04:28:53;99781.00;;;21.19;50.48
4410;BME280;2218;51.408;7.208;2023-05-07T04:31:20;99791.59;;;21.19;50.56
4410;BME280;2218;51.408;7.208;2023-05-07T04:33:51;99787.13;;;21.20;50.73
4410;BME280;2218;51.408;7.208;2023-05-07T04:36:18;99789.78;;;21.20;50.18
4410;BME280;2218;51.408;7.208;2023-05-07T04:38:50;99796.75;;;21.21;49.91
4410;BME280;2218;51.408;7.208;2023-05-07T04:41:19;99795.16;;;21.18;50.66
4410;BME280;2218;51.408;7.208;2023-05-07T04:43:46;99792.41;;;21.20;50.41
4410;BME280;2218;51.408;7.208;2023-05-07T04:46:16;99799.50;;;21.19;50.31
4410;BME280;2218;51.408;7.208;2023-05-07T04:48:44;99796.03;;;21.19;50.58
4410;BME280;2218;51.408;7.208;2023-05-07T04:51:11;99801.31;;;21.19;50.71
4410;BME280;2218;51.408;7.208;2023-05-07T04:53:38;99798.66;;;21.19;50.53
4410;BME280;2218;51.408;7.208;2023-05-07T04:56:05;99796.88;;;21.19;50.51
4410;BME280;2218;51.408;7.208;2023-05-07T04:58:39;99798.53;;;21.20;50.43
4410;BME280;2218;51.408;7.208;2023-05-07T05:01:07;99793.25;;;21.20;50.63
4410;BME280;2218;51.408;7.208;2023-05-07T05:03:35;99796.75;;;21.21;50.67
4410;BME280;2218;51.408;7.208;2023-05-07T05:06:02;99800.34;;;21.20;50.73
4410;BME280;2218;51.408;7.208;2023-05-07T05:08:32;99794.94;;;21.21;50.66
4410;BME280;2218;51.408;7.208;2023-05-07T05:11:01;99800.22;;;21.21;50.57
4410;BME280;2218;51.408;7.208;2023-05-07T05:13:29;99803.72;;;21.22;50.42
4410;BME280;2218;51.408;7.208;2023-05-07T05:15:57;99809.81;;;21.22;50.31
4410;BME280;2218;51.408;7.208;2023-05-07T05:18:26;99802.75;;;21.23;50.39
4410;BME280;2218;51.408;7.208;2023-05-07T05:20:54;99810.66;;;21.23;50.34
4410;BME280;2218;51.408;7.208;2023-05-07T05:23:21;99814.16;;;21.23;50.21
4410;BME280;2218;51.408;7.208;2023-05-07T05:25:48;99809.75;;;21.24;50.21
4410;BME280;2218;51.408;7.208;2023-05-07T05:28:15;99810.56;;;21.24;50.46
4410;BME280;2218;51.408;7.208;2023-05-07T05:30:42;99806.97;;;21.25;50.31
4410;BME280;2218;51.408;7.208;2023-05-07T05:33:09;99811.28;;;21.26;50.22
4410;BME280;2218;51.408;7.208;2023-05-07T05:35:36;99812.97;;;21.27;50.07
4410;BME280;2218;51.408;7.208;2023-05-07T05:38:08;99812.13;;;21.27;50.18
4410;BME280;2218;51.408;7.208;2023-05-07T05:40:35;99812.00;;;21.28;50.55
4410;BME280;2218;51.408;7.208;2023-05-07T05:43:02;99811.06;;;21.29;50.53
4410;BME280;2218;51.408;7.208;2023-05-07T05:45:29;99811.59;;;21.34;50.07
4410;BME280;2218;51.408;7.208;2023-05-07T05:47:57;99818.56;;;21.35;50.36
4410;BME280;2218;51.408;7.208;2023-05-07T05:50:24;99817.47;;;21.38;50.33
4410;BME280;2218;51.408;7.208;2023-05-07T05:52:52;99811.13;;;21.40;50.23
4410;BME280;2218;51.408;7.208;2023-05-07T05:55:21;99818.91;;;21.42;49.98
4410;BME280;2218;51.408;7.208;2023-05-07T05:57:48;99819.75;;;21.42;50.22
4410;BME280;2218;51.408;7.208;2023-05-07T06:00:16;99824.22;;;21.42;50.34
4410;BME280;2218;51.408;7.208;2023-05-07T06:02:46;99821.47;;;21.44;50.45
4410;BME280;2218;51.408;7.208;2023-05-07T06:05:19;99820.50;;;21.45;50.09
4410;BME280;2218;51.408;7.208;2023-05-07T06:07:47;99814.25;;;21.46;50.51
4410;BME280;2218;51.408;7.208;2023-05-07T06:10:15;99822.19;;;21.46;50.16
4410;BME280;2218;51.408;7.208;2023-05-07T06:12:44;99828.31;;;21.46;50.43
4410;BME280;2218;51.408;7.208;2023-05-07T06:15:11;99824.69;;;21.47;50.35
4410;BME280;2218;51.408;7.208;2023-05-07T06:17:38;99823.72;;;21.48;50.40
4410;BME280;2218;51.408;7.208;2023-05-07T06:20:08;99831.66;;;21.48;50.17
4410;BME280;2218;51.408;7.208;2023-05-07T06:22:35;99830.72;;;21.49;50.26
4410;BME280;2218;51.408;7.208;2023-05-07T06:25:03;99829.88;;;21.49;50.53
4410;BME280;2218;51.408;7.208;2023-05-07T06:27:30;99836.00;;;21.49;49.95
4410;BME280;2218;51.408;7.208;2023-05-07T06:29:59;99840.47;;;21.49;50.09
4410;BME280;2218;51.408;7.208;2023-05-07T06:32:26;99835.19;;;21.49;50.44
4410;BME280;2218;51.408;7.208;2023-05-07T06:34:53;99839.59;;;21.48;50.19
4410;BME280;2218;51.408;7.208;2023-05-07T06:37:21;99840.47;;;21.49;50.42
4410;BME280;2218;51.408;7.208;2023-05-07T06:39:54;99839.59;;;21.48;50.28
4410;BME280;2218;51.408;7.208;2023-05-07T06:42:22;99844.03;;;21.48;50.56
4410;BME280;2218;51.408;7.208;2023-05-07T06:44:49;99849.34;;;21.48;50.42
4410;BME280;2218;51.408;7.208;2023-05-07T06:47:19;99849.34;;;21.48;50.40
4410;BME280;2218;51.408;7.208;2023-05-07T06:49:50;99849.34;;;21.48;50.18
4410;BME280;2218;51.408;7.208;2023-05-07T06:52:19;99857.25;;;21.48;50.20
4410;BME280;2218;51.408;7.208;2023-05-07T06:54:48;99853.78;;;21.47;50.42
4410;BME280;2218;51.408;7.208;2023-05-07T06:57:17;99851.97;;;21.48;50.49
4410;BME280;2218;51.408;7.208;2023-05-07T06:59:44;99855.47;;;21.48;50.52
4410;BME280;2218;51.408;7.208;2023-05-07T07:02:11;99851.03;;;21.49;49.99
4410;BME280;2218;51.408;7.208;2023-05-07T07:04:39;99850.16;;;21.48;50.57
4410;BME280;2218;51.408;7.208;2023-05-07T07:07:09;99848.41;;;21.49;50.26
4410;BME280;2218;51.408;7.208;2023-05-07T07:09:38;99844.03;;;21.48;50.42
4410;BME280;2218;51.408;7.208;2023-05-07T07:12:06;99849.34;;;21.48;50.45
4410;BME280;2218;51.408;7.208;2023-05-07T07:14:35;99844.03;;;21.48;50.49
4410;BME280;2218;51.408;7.208;2023-05-07T07:17:03;99842.13;;;21.50;50.44
4410;BME280;2218;51.408;7.208;2023-05-07T07:19:31;99843.94;;;21.49;50.25
4410;BME280;2218;51.408;7.208;2023-05-07T07:22:00;99842.13;;;21.50;50.48
4410;BME280;2218;51.408;7.208;2023-05-07T07:24:27;99840.34;;;21.50;50.01
4410;BME280;2218;51.408;7.208;2023-05-07T07:26:58;99842.97;;;21.50;50.48
4410;BME280;2218;51.408;7.208;2023-05-07T07:29:26;99837.69;;;21.50;50.30
4410;BME280;2218;51.408;7.208;2023-05-07T07:31:54;99840.34;;;21.50;50.03
4410;BME280;2218;51.408;7.208;2023-05-07T07:34:21;99845.63;;;21.50;50.32
4410;BME280;2218;51.408;7.208;2023-05-07T07:36:49;99842.97;;;21.50;50.33
4410;BME280;2218;51.408;7.208;2023-05-07T07:39:19;99850.78;;;21.52;49.99
4410;BME280;2218;51.408;7.208;2023-05-07T07:41:49;99847.31;;;21.51;50.10
4410;BME280;2218;51.408;7.208;2023-05-07T07:44:17;99851.75;;;21.51;50.36
4410;BME280;2218;51.408;7.208;2023-05-07T07:46:49;99850.78;;;21.52;50.09
4410;BME280;2218;51.408;7.208;2023-05-07T07:49:16;99852.59;;;21.51;50.11
4410;BME280;2218;51.408;7.208;2023-05-07T07:51:44;99848.13;;;21.52;50.04
4410;BME280;2218;51.408;7.208;2023-05-07T07:54:12;99850.78;;;21.52;49.96
4410;BME280;2218;51.408;7.208;2023-05-07T07:56:41;99853.44;;;21.52;50.03
4410;BME280;2218;51.408;7.208;2023-05-07T07:59:10;99852.47;;;21.53;50.19
4410;BME280;2218;51.408;7.208;2023-05-07T08:01:39;99859.56;;;21.52;50.00
4410;BME280;2218;51.408;7.208;2023-05-07T08:04:07;99863.03;;;21.53;50.10
4410;BME280;2218;51.408;7.208;2023-05-07T08:06:37;99861.38;;;21.52;50.50
4410;BME280;2218;51.408;7.208;2023-05-07T08:09:05;99867.50;;;21.52;50.34
4410;BME280;2218;51.408;7.208;2023-05-07T08:11:33;99877.22;;;21.52;50.39
4410;BME280;2218;51.408;7.208;2023-05-07T08:14:01;99868.34;;;21.53;50.10
4410;BME280;2218;51.408;7.208;2023-05-07T08:16:29;99873.63;;;21.53;50.24
4410;BME280;2218;51.408;7.208;2023-05-07T08:18:56;99874.50;;;21.53;50.21
4410;BME280;2218;51.408;7.208;2023-05-07T08:21:23;99879.78;;;21.53;50.27
4410;BME280;2218;51.408;7.208;2023-05-07T08:23:50;99878.91;;;21.53;50.11
4410;BME280;2218;51.408;7.208;2023-05-07T08:26:17;99878.81;;;21.54;50.43
4410;BME280;2218;51.408;7.208;2023-05-07T08:28:44;99880.50;;;21.55;50.56
4410;BME280;2218;51.408;7.208;2023-05-07T08:31:13;99878.69;;;21.56;49.98
4410;BME280;2218;51.408;7.208;2023-05-07T08:33:43;99877.72;;;21.57;50.04
4410;BME280;2218;51.408;7.208;2023-05-07T08:36:10;99873.41;;;21.56;49.99
4410;BME280;2218;51.408;7.208;2023-05-07T08:38:37;99881.22;;;21.57;50.20
4410;BME280;2218;51.408;7.208;2023-05-07T08:41:09;99880.38;;;21.57;50.04
4410;BME280;2218;51.408;7.208;2023-05-07T08:43:41;99876.75;;;21.58;50.18
4410;BME280;2218;51.408;7.208;2023-05-07T08:46:09;99869.78;;;21.57;50.27
4410;BME280;2218;51.408;7.208;2023-05-07T08:48:42;99881.09;;;21.59;50.19
4410;BME280;2218;51.408;7.208;2023-05-07T08:51:15;99875.81;;;21.59;50.28
4410;BME280;2218;51.408;7.208;2023-05-07T08:53:43;99880.16;;;21.60;50.21
4410;BME280;2218;51.408;7.208;2023-05-07T08:56:15;99876.53;;;21.61;50.26
4410;BME280;2218;51.408;7.208;2023-05-07T08:58:43;99883.50;;;21.62;49.93
4410;BME280;2218;51.408;7.208;2023-05-07T09:01:14;99877.25;;;21.63;49.99
4410;BME280;2218;51.408;7.208;2023-05-07T09:03:46;99881.59;;;21.64;49.93
4410;BME280;2218;51.408;7.208;2023-05-07T09:06:15;99866.66;;;21.63;50.13
4410;BME280;2218;51.408;7.208;2023-05-07T09:08:49;99875.34;;;21.65;49.96
4410;BME280;2218;51.408;7.208;2023-05-07T09:11:20;99878.00;;;21.65;50.12
4410;BME280;2218;51.408;7.208;2023-05-07T09:13:49;99869.22;;;21.64;50.40
4410;BME280;2218;51.408;7.208;2023-05-07T09:16:16;99866.44;;;21.66;49.93
4410;BME280;2218;51.408;7.208;2023-05-07T09:18:46;99881.34;;;21.67;49.82
4410;BME280;2218;51.408;7.208;2023-05-07T09:21:16;99878.00;;;21.65;49.93
4410;BME280;2218;51.408;7.208;2023-05-07T09:23:44;99881.34;;;21.67;50.00
4410;BME280;2218;51.408;7.208;2023-05-07T09:26:12;99872.44;;;21.68;49.80
4410;BME280;2218;51.408;7.208;2023-05-07T09:28:42;99867.16;;;21.68;49.91
4410;BME280;2218;51.408;7.208;2023-05-07T09:31:12;99863.56;;;21.69;49.62
4410;BME280;2218;51.408;7.208;2023-05-07T09:33:40;99865.25;;;21.70;49.70
4410;BME280;2218;51.408;7.208;2023-05-07T09:36:11;99868.59;;;21.72;49.75
4410;BME280;2218;51.408;7.208;2023-05-07T09:38:40;99865.97;;;21.72;49.82
4410;BME280;2218;51.408;7.208;2023-05-07T09:41:12;99873.91;;;21.72;49.68
4410;BME280;2218;51.408;7.208;2023-05-07T09:43:56;99875.59;;;21.73;50.22
4410;BME280;2218;51.408;7.208;2023-05-07T09:46:32;99866.94;;;21.71;49.81
4410;BME280;2218;51.408;7.208;2023-05-07T09:49:07;99873.06;;;21.72;49.94
4410;BME280;2218;51.408;7.208;2023-05-07T09:51:48;99875.59;;;21.73;50.21
4410;BME280;2218;51.408;7.208;2023-05-07T09:54:16;99870.31;;;21.73;49.69
4410;BME280;2218;51.408;7.208;2023-05-07T09:56:48;99874.66;;;21.74;50.33
4410;BME280;2218;51.408;7.208;2023-05-07T09:59:17;99878.13;;;21.75;50.07
4410;BME280;2218;51.408;7.208;2023-05-07T10:01:46;99874.50;;;21.76;49.84
4410;BME280;2218;51.408;7.208;2023-05-07T10:04:14;99874.50;;;21.76;49.79
4410;BME280;2218;51.408;7.208;2023-05-07T10:06:46;99876.19;;;21.77;49.76
4410;BME280;2218;51.408;7.208;2023-05-07T10:09:15;99875.34;;;21.76;50.10
4410;BME280;2218;51.408;7.208;2023-05-07T10:11:43;99875.34;;;21.76;50.20
4410;BME280;2218;51.408;7.208;2023-05-07T10:14:11;99878.97;;;21.75;49.74
4410;BME280;2218;51.408;7.208;2023-05-07T10:16:41;99874.50;;;21.76;49.89
4410;BME280;2218;51.408;7.208;2023-05-07T10:19:13;99870.91;;;21.77;49.76
4410;BME280;2218;51.408;7.208;2023-05-07T10:21:54;99871.75;;;21.77;49.72
4410;BME280;2218;51.408;7.208;2023-05-07T10:24:29;99869.09;;;21.77;49.96
4410;BME280;2218;51.408;7.208;2023-05-07T10:27:02;99870.91;;;21.77;50.10
4410;BME280;2218;51.408;7.208;2023-05-07T10:29:39;99867.28;;;21.78;50.17
4410;BME280;2218;51.408;7.208;2023-05-07T10:32:35;99869.09;;;21.77;49.74
4410;BME280;2218;51.408;7.208;2023-05-07T10:35:10;99870.81;;;21.78;50.18
4410;BME280;2218;51.408;7.208;2023-05-07T10:37:42;99871.50;;;21.80;50.18
4410;BME280;2218;51.408;7.208;2023-05-07T10:40:12;99866.22;;;21.80;49.69
4410;BME280;2218;51.408;7.208;2023-05-07T10:42:54;99868.03;;;21.80;49.83
4410;BME280;2218;51.408;7.208;2023-05-07T10:45:23;99873.19;;;21.81;49.62
4410;BME280;2218;51.408;7.208;2023-05-07T10:48:09;99876.81;;;21.80;49.84
4410;BME280;2218;51.408;7.208;2023-05-07T10:50:38;99878.47;;;21.81;50.02
4410;BME280;2218;51.408;7.208;2023-05-07T10:53:24;99873.19;;;21.81;50.17
4410;BME280;2218;51.408;7.208;2023-05-07T10:56:26;99867.91;;;21.81;50.08
4410;BME280;2218;51.408;7.208;2023-05-07T10:59:39;99869.59;;;21.82;49.86
4410;BME280;2218;51.408;7.208;2023-05-07T11:02:18;99872.22;;;21.82;49.79
4410;BME280;2218;51.408;7.208;2023-05-07T11:05:20;99866.94;;;21.82;50.11
4410;BME280;2218;51.408;7.208;2023-05-07T11:07:55;99866.00;;;21.83;49.95
4410;BME280;2218;51.408;7.208;2023-05-07T11:10:48;99866.00;;;21.83;49.46
4410;BME280;2218;51.408;7.208;2023-05-07T11:13:44;99873.94;;;21.83;49.74
4410;BME280;2218;51.408;7.208;2023-05-07T11:16:21;99870.31;;;21.84;49.70
4410;BME280;2218;51.408;7.208;2023-05-07T11:18:56;99868.66;;;21.83;49.88
4410;BME280;2218;51.408;7.208;2023-05-07T11:21:35;99866.84;;;21.84;49.61
4410;BME280;2218;51.408;7.208;2023-05-07T11:24:10;99865.13;;;21.83;49.77
4410;BME280;2218;51.408;7.208;2023-05-07T11:26:50;99859.84;;;21.83;49.77
4410;BME280;2218;51.408;7.208;2023-05-07T11:29:21;99860.72;;;21.83;49.61
4410;BME280;2218;51.408;7.208;2023-05-07T11:31:51;99866.00;;;21.83;49.62
4410;BME280;2218;51.408;7.208;2023-05-07T11:34:24;99869.59;;;21.82;49.61
4410;BME280;2218;51.408;7.208;2023-05-07T11:36:53;99869.59;;;21.82;49.55
4410;BME280;2218;51.408;7.208;2023-05-07T11:39:28;99866.00;;;21.83;50.11
4410;BME280;2218;51.408;7.208;2023-05-07T11:41:57;99866.09;;;21.82;50.06
4410;BME280;2218;51.408;7.208;2023-05-07T11:44:24;99865.25;;;21.81;49.60
4410;BME280;2218;51.408;7.208;2023-05-07T11:46:51;99866.09;;;21.82;50.08
4410;BME280;2218;51.408;7.208;2023-05-07T11:49:18;99864.28;;;21.82;49.80
4410;BME280;2218;51.408;7.208;2023-05-07T11:51:45;99874.88;;;21.82;49.55
4410;BME280;2218;51.408;7.208;2023-05-07T11:54:16;99870.41;;;21.83;49.70
4410;BME280;2218;51.408;7.208;2023-05-07T11:56:44;99866.94;;;21.82;49.76
4410;BME280;2218;51.408;7.208;2023-05-07T11:59:17;99874.78;;;21.84;50.07
4410;BME280;2218;51.408;7.208;2023-05-07T12:01:46;99878.25;;;21.84;49.91
4410;BME280;2218;51.408;7.208;2023-05-07T12:04:19;99873.94;;;21.83;50.00
4410;BME280;2218;51.408;7.208;2023-05-07T12:06:46;99867.69;;;21.84;49.93
4410;BME280;2218;51.408;7.208;2023-05-07T12:09:13;99869.34;;;21.85;49.57
4410;BME280;2218;51.408;7.208;2023-05-07T12:11:45;99864.06;;;21.85;49.78
4410;BME280;2218;51.408;7.208;2023-05-07T12:14:14;99871.03;;;21.86;49.52
4410;BME280;2218;51.408;7.208;2023-05-07T12:16:43;99864.06;;;21.85;49.53
4410;BME280;2218;51.408;7.208;2023-05-07T12:19:11;99869.34;;;21.85;49.47
4410;BME280;2218;51.408;7.208;2023-05-07T12:21:39;99874.66;;;21.85;49.98
4410;BME280;2218;51.408;7.208;2023-05-07T12:24:07;99879.09;;;21.85;49.85
4410;BME280;2218;51.408;7.208;2023-05-07T12:26:38;99870.31;;;21.84;49.96
4410;BME280;2218;51.408;7.208;2023-05-07T12:29:06;99877.28;;;21.85;49.62
4410;BME280;2218;51.408;7.208;2023-05-07T12:31:34;99881.63;;;21.86;49.88
4410;BME280;2218;51.408;7.208;2023-05-07T12:34:02;99882.59;;;21.85;50.11
4410;BME280;2218;51.408;7.208;2023-05-07T12:36:37;99885.22;;;21.85;49.58
4410;BME280;2218;51.408;7.208;2023-05-07T12:39:05;99883.56;;;21.84;50.01
4410;BME280;2218;51.408;7.208;2023-05-07T12:41:43;99889.56;;;21.86;49.87
4410;BME280;2218;51.408;7.208;2023-05-07T12:44:18;99887.88;;;21.85;50.05
4410;BME280;2218;51.408;7.208;2023-05-07T12:46:48;99891.50;;;21.84;49.58
4410;BME280;2218;51.408;7.208;2023-05-07T12:49:15;99894.97;;;21.85;50.12
4410;BME280;2218;51.408;7.208;2023-05-07T12:51:43;99898.47;;;21.85;50.07
4410;BME280;2218;51.408;7.208;2023-05-07T12:54:10;99895.81;;;21.85;50.00
4410;BME280;2218;51.408;7.208;2023-05-07T12:56:37;99902.06;;;21.84;49.67
4410;BME280;2218;51.408;7.208;2023-05-07T12:59:04;99895.94;;;21.84;49.58
4410;BME280;2218;51.408;7.208;2023-05-07T13:01:34;99895.09;;;21.83;50.01
4410;BME280;2218;51.408;7.208;2023-05-07T13:04:03;99901.31;;;21.82;49.42
4410;BME280;2218;51.408;7.208;2023-05-07T13:06:31;99910.09;;;21.83;49.79
4410;BME280;2218;51.408;7.208;2023-05-07T13:08:58;99903.13;;;21.82;50.08
4410;BME280;2218;51.408;7.208;2023-05-07T13:11:25;99911.06;;;21.82;49.86
4410;BME280;2218;51.408;7.208;2023-05-07T13:13:51;99909.41;;;21.81;50.11
4410;BME280;2218;51.408;7.208;2023-05-07T13:16:18;99910.22;;;21.81;49.63
4410;BME280;2218;51.408;7.208;2023-05-07T13:18:45;99908.56;;;21.80;50.28
4410;BME280;2218;51.408;7.208;2023-05-07T13:21:14;99913.84;;;21.80;49.76
4410;BME280;2218;51.408;7.208;2023-05-07T13:23:40;99905.91;;;21.80;49.87
4410;BME280;2218;51.408;7.208;2023-05-07T13:26:07;99901.59;;;21.79;50.16
4410;BME280;2218;51.408;7.208;2023-05-07T13:28:35;99902.44;;;21.80;50.14
4410;BME280;2218;51.408;7.208;2023-05-07T13:31:02;99912.16;;;21.79;50.26
4410;BME280;2218;51.408;7.208;2023-05-07T13:33:29;99907.84;;;21.78;49.91
4410;BME280;2218;51.408;7.208;2023-05-07T13:35:56;99907.84;;;21.78;49.89